createdAt,value
2022-10-03T00:01:32.170Z,13.02
2022-10-03T00:04:07.573Z,8.85
2022-10-03T00:07:09.783Z,10.73
2022-10-03T00:09:42.220Z,16.38
2022-10-03T00:12:18.281Z,12.38
2022-10-03T00:17:40.661Z,14.77
2022-10-03T00:20:32.953Z,10.30
2022-10-03T00:23:38.503Z,13.65
2022-10-03T00:26:27.612Z,13.98
2022-10-03T00:28:54.119Z,11.27
2022-10-03T00:31:56.445Z,13.85
2022-10-03T00:34:28.634Z,12.18
2022-10-03T00:37:13.967Z,10.27
2022-10-03T00:39:56.971Z,11.73
2022-10-03T00:42:40.101Z,10.48
2022-10-03T00:45:12.507Z,9.23
2022-10-03T00:47:51.037Z,11.55
2022-10-03T00:50:17.433Z,9.70
2022-10-03T00:53:10.013Z,10.10
2022-10-03T00:56:15.373Z,9.95
2022-10-03T00:58:48.617Z,12.82
2022-10-03T01:01:23.096Z,8.18
2022-10-03T01:04:14.583Z,8.02
2022-10-03T01:07:02.290Z,10.15
2022-10-03T01:09:49.959Z,9.90
2022-10-03T01:12:19.618Z,9.30
2022-10-03T01:15:05.092Z,11.15
2022-10-03T01:17:47.928Z,12.07
2022-10-03T01:20:27.095Z,11.48
2022-10-03T01:23:31.992Z,15.13
2022-10-03T01:26:49.433Z,17.13
2022-10-03T01:29:42.724Z,10.75
2022-10-03T01:32:20.192Z,10.55
2022-10-03T01:35:17.739Z,12.32
2022-10-03T01:37:53.504Z,9.15
2022-10-03T01:40:29.692Z,8.90
2022-10-03T01:43:05.105Z,9.23
2022-10-03T01:45:53.198Z,9.77
2022-10-03T01:48:27.312Z,10.50
2022-10-03T01:51:02.482Z,11.68
2022-10-03T01:54:07.437Z,10.67
2022-10-03T01:56:58.455Z,7.93
2022-10-03T01:59:53.086Z,8.63
2022-10-03T02:02:31.243Z,18.67
2022-10-03T02:05:12.927Z,9.50
2022-10-03T02:07:42.329Z,7.40
2022-10-03T02:10:21.975Z,14.25
2022-10-03T02:13:13.513Z,18.55
2022-10-03T02:16:01.921Z,13.98
2022-10-03T02:18:52.047Z,11.05
2022-10-03T02:21:24.153Z,12.43
2022-10-03T02:24:23.603Z,11.65
2022-10-03T02:27:07.383Z,13.55
2022-10-03T02:30:05.712Z,13.80
2022-10-03T02:33:01.323Z,13.57
2022-10-03T02:35:43.185Z,11.60
2022-10-03T02:38:29.544Z,12.20
2022-10-03T02:41:27.154Z,9.88
2022-10-03T02:44:38.146Z,10.20
2022-10-03T02:47:29.577Z,15.50
2022-10-03T02:50:08.302Z,11.23
2022-10-03T02:52:52.546Z,9.52
2022-10-03T02:55:47.185Z,9.65
2022-10-03T02:58:19.505Z,10.32
2022-10-03T03:01:22.252Z,14.65
2022-10-03T03:04:08.912Z,13.90
2022-10-03T03:09:58.136Z,10.73
2022-10-03T03:12:42.278Z,11.45
2022-10-03T03:15:39.748Z,12.48
2022-10-03T03:18:12.375Z,13.60
2022-10-03T03:20:57.679Z,12.68
2022-10-03T03:23:26.997Z,11.35
2022-10-03T03:25:59.525Z,11.43
2022-10-03T03:28:26.308Z,9.73
2022-10-03T03:30:55.669Z,8.73
2022-10-03T03:33:43.537Z,8.10
2022-10-03T03:36:41.305Z,11.88
2022-10-03T03:39:24.269Z,12.93
2022-10-03T03:42:16.969Z,9.85
2022-10-03T03:45:31.068Z,14.70
2022-10-03T03:48:14.387Z,15.20
2022-10-03T03:50:49.568Z,13.00
2022-10-03T03:53:50.051Z,15.07
2022-10-03T03:56:35.127Z,15.98
2022-10-03T03:59:07.608Z,15.43
2022-10-03T04:01:59.500Z,13.82
2022-10-03T04:04:29.189Z,13.45
2022-10-03T04:06:56.433Z,16.65
2022-10-03T04:10:00.760Z,13.48
2022-10-03T04:12:47.762Z,13.30
2022-10-03T04:15:31.489Z,24.80
2022-10-03T04:18:30.945Z,17.35
2022-10-03T04:21:09.252Z,11.73
2022-10-03T04:24:13.314Z,13.27
2022-10-03T04:27:04.245Z,12.15
2022-10-03T04:29:56.664Z,16.38
2022-10-03T04:32:41.862Z,14.02
2022-10-03T04:35:20.775Z,13.40
2022-10-03T04:38:13.493Z,14.73
2022-10-03T04:41:31.153Z,17.20
2022-10-03T04:44:35.236Z,15.63
2022-10-03T04:47:15.383Z,14.93
2022-10-03T04:49:53.021Z,19.83
2022-10-03T04:52:33.241Z,10.00
2022-10-03T04:55:41.321Z,14.10
2022-10-03T04:58:26.652Z,19.98
2022-10-03T05:01:13.130Z,12.00
2022-10-03T05:06:27.868Z,12.05
2022-10-03T05:09:32.897Z,14.88
2022-10-03T05:12:22.234Z,15.93
2022-10-03T05:15:01.269Z,11.77
2022-10-03T05:17:33.920Z,9.07
2022-10-03T05:20:37.555Z,16.00
2022-10-03T05:23:45.100Z,14.45
2022-10-03T05:29:25.518Z,13.60
2022-10-03T05:32:10.050Z,15.32
2022-10-03T05:34:51.553Z,16.50
2022-10-03T05:37:56.967Z,11.90
2022-10-03T05:40:29.885Z,18.65
2022-10-03T05:43:36.015Z,13.65
2022-10-03T05:46:33.285Z,17.40
2022-10-03T05:49:11.564Z,14.95
2022-10-03T05:52:07.409Z,11.55
2022-10-03T05:55:18.784Z,15.57
2022-10-03T05:58:04.394Z,14.02
2022-10-03T06:00:39.596Z,18.70
2022-10-03T06:03:09.211Z,17.27
2022-10-03T06:05:51.273Z,15.07
2022-10-03T06:08:29.895Z,13.93
2022-10-03T06:11:25.807Z,18.83
2022-10-03T06:14:05.996Z,16.08
2022-10-03T06:16:39.492Z,17.98
2022-10-03T06:19:12.072Z,19.05
2022-10-03T06:21:58.685Z,21.92
2022-10-03T06:27:36.361Z,14.43
2022-10-03T06:30:11.928Z,13.15
2022-10-03T06:33:06.005Z,14.25
2022-10-03T06:35:52.696Z,17.10
2022-10-03T06:38:40.998Z,16.10
2022-10-03T06:41:10.377Z,22.58
2022-10-03T06:44:01.748Z,11.77
2022-10-03T06:46:37.189Z,19.65
2022-10-03T06:49:35.751Z,13.93
2022-10-03T06:52:33.128Z,16.55
2022-10-03T06:55:04.347Z,17.35
2022-10-03T06:58:02.230Z,16.85
2022-10-03T07:00:52.467Z,15.63
2022-10-03T07:03:36.519Z,20.30
2022-10-03T07:06:12.826Z,17.77
2022-10-03T07:08:48.197Z,16.38
2022-10-03T07:11:20.588Z,16.02
2022-10-03T07:14:28.904Z,20.02
2022-10-03T07:17:07.886Z,17.35
2022-10-03T07:19:52.435Z,16.42
2022-10-03T07:22:35.571Z,19.73
2022-10-03T07:25:23.441Z,15.07
2022-10-03T07:27:53.130Z,17.92
2022-10-03T07:30:24.241Z,21.98
2022-10-03T07:33:06.011Z,21.00
2022-10-03T07:36:25.234Z,16.65
2022-10-03T07:39:15.653Z,15.07
2022-10-03T07:42:13.938Z,18.10
2022-10-03T07:44:50.581Z,21.92
2022-10-03T07:47:35.819Z,20.55
2022-10-03T07:50:14.813Z,20.05
2022-10-03T07:53:16.919Z,15.05
2022-10-03T07:56:20.758Z,17.75
2022-10-03T07:59:04.210Z,16.00
2022-10-03T08:01:42.764Z,16.80
2022-10-03T08:04:47.242Z,17.65
2022-10-03T08:07:26.548Z,18.40
2022-10-03T08:10:09.138Z,17.00
2022-10-03T08:12:53.741Z,18.10
2022-10-03T08:15:44.527Z,20.13
2022-10-03T08:18:16.811Z,21.45
2022-10-03T08:21:10.584Z,19.17
2022-10-03T08:24:09.406Z,18.17
2022-10-03T08:27:09.701Z,18.48
2022-10-03T08:29:57.978Z,20.50
2022-10-03T08:32:56.193Z,20.55
2022-10-03T08:35:55.828Z,19.52
2022-10-03T08:38:48.250Z,24.85
2022-10-03T08:41:33.429Z,18.02
2022-10-03T08:44:37.465Z,19.80
2022-10-03T08:47:22.567Z,19.10
2022-10-03T08:50:26.784Z,17.17
2022-10-03T08:53:32.308Z,17.15
2022-10-03T08:56:14.018Z,18.88
2022-10-03T08:59:02.358Z,18.05
2022-10-03T09:01:44.724Z,20.30
2022-10-03T09:04:46.340Z,19.45
2022-10-03T09:07:17.635Z,17.15
2022-10-03T09:10:22.214Z,16.75
2022-10-03T09:13:09.462Z,17.83
2022-10-03T09:16:18.777Z,15.82
2022-10-03T09:18:57.171Z,21.23
2022-10-03T09:21:31.670Z,20.02
2022-10-03T09:24:09.104Z,19.00
2022-10-03T09:26:54.601Z,12.27
2022-10-03T09:29:30.175Z,19.85
2022-10-03T09:32:41.447Z,14.30
2022-10-03T09:35:38.913Z,16.63
2022-10-03T09:38:26.992Z,11.68
2022-10-03T09:41:15.564Z,13.43
2022-10-03T09:44:15.965Z,13.02
2022-10-03T09:47:24.052Z,12.43
2022-10-03T09:50:19.260Z,14.70
2022-10-03T09:52:53.202Z,24.35
2022-10-03T09:55:40.471Z,10.80
2022-10-03T09:58:33.459Z,16.23
2022-10-03T10:01:42.208Z,17.42
2022-10-03T10:04:53.045Z,14.63
2022-10-03T10:07:54.684Z,13.43
2022-10-03T10:10:36.377Z,12.35
2022-10-03T10:13:18.242Z,13.30
2022-10-03T10:16:17.384Z,12.55
2022-10-03T10:19:12.420Z,10.02
2022-10-03T10:22:00.440Z,7.53
2022-10-03T10:24:42.000Z,11.70
2022-10-03T10:27:45.698Z,9.52
2022-10-03T10:30:21.890Z,9.50
2022-10-03T10:33:34.378Z,7.70
2022-10-03T10:36:45.605Z,6.28
2022-10-03T10:39:37.072Z,8.07
2022-10-03T10:42:15.779Z,5.43
2022-10-03T10:44:42.213Z,6.68
2022-10-03T10:47:13.731Z,7.32
2022-10-03T10:49:57.280Z,10.43
2022-10-03T10:52:35.818Z,11.13
2022-10-03T10:55:27.181Z,10.82
2022-10-03T10:58:31.166Z,9.98
2022-10-03T11:01:18.931Z,7.03
2022-10-03T11:03:54.248Z,6.45
2022-10-03T11:06:42.701Z,6.20
2022-10-03T11:09:41.978Z,5.88
2022-10-03T11:12:27.140Z,8.43
2022-10-03T11:15:35.972Z,8.23
2022-10-03T11:18:20.900Z,4.22
2022-10-03T11:20:59.687Z,6.53
2022-10-03T11:23:44.498Z,7.68
2022-10-03T11:26:49.936Z,13.25
2022-10-03T11:29:40.953Z,6.93
2022-10-03T11:32:41.853Z,12.25
2022-10-03T11:35:11.056Z,6.78
2022-10-03T11:37:43.931Z,9.07
2022-10-03T11:40:19.658Z,3.60
2022-10-03T11:42:55.233Z,9.63
2022-10-03T11:45:42.653Z,4.75
2022-10-03T11:48:37.769Z,4.60
2022-10-03T11:51:10.629Z,6.32
2022-10-03T11:53:45.493Z,7.60
2022-10-03T11:56:31.931Z,5.03
2022-10-03T12:01:52.559Z,3.63
2022-10-03T12:04:44.155Z,6.15
2022-10-03T12:07:35.269Z,5.95
2022-10-03T12:10:16.943Z,2.90
2022-10-03T12:12:53.011Z,5.57
2022-10-03T12:15:25.700Z,4.53
2022-10-03T12:18:27.928Z,7.75
2022-10-03T12:21:39.649Z,2.92
2022-10-03T12:24:24.443Z,4.93
2022-10-03T12:27:02.835Z,4.10
2022-10-03T12:29:33.549Z,2.97
2022-10-03T12:32:05.843Z,3.35
2022-10-03T12:34:57.445Z,7.47
2022-10-03T12:37:51.783Z,8.07
2022-10-03T12:40:26.820Z,8.82
2022-10-03T12:43:02.472Z,6.67
2022-10-03T12:45:50.599Z,5.18
2022-10-03T12:48:40.017Z,3.53
2022-10-03T12:51:26.182Z,5.72
2022-10-03T12:54:07.533Z,3.67
2022-10-03T12:56:37.400Z,4.47
2022-10-03T12:59:35.138Z,5.72
2022-10-03T13:02:12.263Z,9.60
2022-10-03T13:04:51.527Z,5.80
2022-10-03T13:07:27.828Z,2.90
2022-10-03T13:10:26.220Z,4.75
2022-10-03T13:13:01.895Z,5.63
2022-10-03T13:15:47.353Z,5.47
2022-10-03T13:18:17.053Z,4.13
2022-10-03T13:20:53.712Z,7.07
2022-10-03T13:23:35.811Z,3.45
2022-10-03T13:26:42.467Z,7.30
2022-10-03T13:29:12.672Z,5.28
2022-10-03T13:31:53.910Z,9.80
2022-10-03T13:34:25.302Z,6.10
2022-10-03T13:37:11.491Z,5.20
2022-10-03T13:39:51.700Z,9.43
2022-10-03T13:42:36.193Z,5.78
2022-10-03T13:45:12.987Z,6.40
2022-10-03T13:47:47.011Z,6.13
2022-10-03T13:50:24.217Z,5.18
2022-10-03T13:53:01.211Z,7.78
2022-10-03T13:55:47.681Z,6.38
2022-10-03T13:58:32.755Z,5.53
2022-10-03T14:01:13.642Z,6.70
2022-10-03T14:03:43.856Z,5.00
2022-10-03T14:06:48.134Z,4.57
2022-10-03T14:09:45.238Z,6.80
2022-10-03T14:12:54.821Z,5.68
2022-10-03T14:15:28.699Z,4.70
2022-10-03T14:18:20.110Z,5.55
2022-10-03T14:21:22.251Z,5.63
2022-10-03T14:24:15.406Z,4.38
2022-10-03T14:26:56.602Z,5.43
2022-10-03T14:29:49.623Z,9.73
2022-10-03T14:32:47.605Z,3.63
2022-10-03T14:35:34.280Z,2.85
2022-10-03T14:38:19.668Z,7.63
2022-10-03T14:40:54.971Z,2.53
2022-10-03T14:43:24.375Z,3.47
2022-10-03T14:45:57.938Z,5.32
2022-10-03T14:48:41.660Z,6.13
2022-10-03T14:51:31.972Z,5.28
2022-10-03T14:54:16.770Z,7.63
2022-10-03T14:56:46.731Z,5.93
2022-10-03T14:59:25.738Z,3.22
2022-10-03T15:01:57.767Z,4.25
2022-10-03T15:04:39.750Z,4.00
2022-10-03T15:07:07.748Z,2.97
2022-10-03T15:09:40.735Z,4.00
2022-10-03T15:12:13.670Z,3.50
2022-10-03T15:14:48.137Z,5.13
2022-10-03T15:17:22.685Z,4.35
2022-10-03T15:19:54.827Z,4.78
2022-10-03T15:22:33.149Z,5.95
2022-10-03T15:25:11.430Z,3.22
2022-10-03T15:27:42.028Z,3.28
2022-10-03T15:30:20.613Z,4.05
2022-10-03T15:32:50.575Z,1.92
2022-10-03T15:35:29.129Z,3.15
2022-10-03T15:38:06.419Z,8.30
2022-10-03T15:40:41.151Z,2.78
2022-10-03T15:43:34.454Z,3.40
2022-10-03T15:46:14.435Z,4.28
2022-10-03T15:48:47.204Z,5.65
2022-10-03T15:51:23.001Z,5.60
2022-10-03T15:53:51.707Z,7.45
2022-10-03T15:56:29.852Z,6.78
2022-10-03T15:59:04.076Z,4.85
2022-10-03T16:01:38.147Z,6.05
2022-10-03T16:04:27.286Z,6.32
2022-10-03T16:07:42.798Z,5.20
2022-10-03T16:10:18.750Z,3.75
2022-10-03T16:15:17.109Z,3.85
2022-10-03T16:17:49.470Z,4.50
2022-10-03T16:20:22.110Z,7.07
2022-10-03T16:22:53.287Z,6.43
2022-10-03T16:25:27.872Z,4.88
2022-10-03T16:28:07.451Z,3.88
2022-10-03T16:30:53.754Z,2.83
2022-10-03T16:33:33.856Z,4.80
2022-10-03T16:36:06.155Z,5.57
2022-10-03T16:38:37.507Z,2.30
2022-10-03T16:41:40.824Z,4.43
2022-10-03T16:44:19.827Z,4.78
2022-10-03T16:46:48.218Z,7.75
2022-10-03T16:49:48.899Z,2.80
2022-10-03T16:52:19.195Z,11.20
2022-10-03T16:54:47.106Z,2.50
2022-10-03T16:57:48.064Z,4.00
2022-10-03T17:00:24.077Z,4.13
